Latest Coastal Weather Observations for Devonport Airport

IDT60701

Issued at 8:12 pm EDT Saturday 16 December 2017 (issued every 10 minutes, with the page automatically refreshed every 10 minutes)

About coastal observations | Map of coastal stations | Coastal observations for TAS | Marine services | Other Formats
Station Details ID: 091126 Name: DEVONPORT AIRPORT Lat: -41.17 Lon: 146.43 Height: 8.0 m
Data from the previous 72 hours. | See also: Recent months at Devonport Airport
Date/Time
EDT
Temp
°C
Wind Pressure Rain since
9am
mm
Weather Cloud Vis
km
Sea
Height
m
Swell
Dir  Spd
kts
Gust
kts
hPa Trend Height
m
Period
s
Dir
16/08:00pm 17.7 WNW 14 18 1014.5 - 0.0 - Clear 10 - - - -
16/07:30pm 18.3 WNW 15 18 1014.1 - 0.0 - Partly cloudy 10 - - - -
16/07:00pm 18.7 WNW 16 22 1013.5 - 0.0 - Partly cloudy 10 - - - -
16/06:30pm 18.2 WNW 17 21 1013.2 - 0.0 - Partly cloudy 10 - - - -
16/06:00pm 18.5 WNW 17 22 1013.0 - 0.0 - Partly cloudy 10 - - - -
16/05:30pm 19.3 NW 19 24 1012.8 - 0.0 - Partly cloudy 10 - - - -
16/05:00pm 19.9 NW 19 24 1012.8 - 0.0 - Partly cloudy 10 - - - -
16/04:30pm 19.5 NW 19 24 1013.0 - 0.0 - Partly cloudy 10 - - - -
16/04:00pm 19.5 NW 20 25 1013.0 - 0.0 - Partly cloudy 10 - - - -
16/03:30pm 19.3 NW 20 27 1013.0 - 0.0 - Partly cloudy 10 - - - -
16/03:00pm 19.7 NW 20 26 1012.9 - 0.0 - Partly cloudy 10 - - - -
16/02:30pm 19.9 NW 19 23 1013.0 - 0.0 - Partly cloudy 10 - - - -
16/02:00pm 20.0 NW 15 19 1013.0 - 0.0 - Partly cloudy 10 - - - -
16/01:30pm 19.3 NW 16 20 1013.0 - 0.0 - Partly cloudy 10 - - - -
16/01:00pm 19.9 NW 15 19 1012.9 - 0.0 - - 10 - - - -
16/12:30pm 18.7 NW 17 21 1012.8 - 0.0 - Partly cloudy 10 - - - -
16/12:00pm 18.2 NW 13 18 1013.0 - 0.0 - Cloudy 10 - - - -
16/11:30am 19.0 NW 14 18 1012.7 - 0.0 - Partly cloudy 10 - - - -
16/11:00am 17.6 WNW 14 17 1012.8 - 0.0 - Partly cloudy 10 - - - -
16/10:30am 17.8 WNW 11 15 1012.7 - 0.0 - Partly cloudy 10 - - - -
16/10:00am 18.1 WNW 15 19 1012.8 - 0.0 - Partly cloudy 10 - - - -
16/09:30am 17.8 WNW 12 15 1012.7 - 0.0 - Cloudy 10 - - - -
16/09:00am 16.8 NW 11 14 1012.6 - 0.0 - Cloudy 10 - - - -
16/08:30am 16.1 WNW 11 15 1012.4 - 0.0 - Cloudy 10 - - - -
16/08:00am 15.8 WNW 12 15 1012.3 - 0.0 - Cloudy 10 - - - -
16/07:30am 15.2 WNW 11 14 1011.9 - 0.0 - Cloudy 10 - - - -
16/07:00am 15.0 WNW 10 13 1011.7 - 0.0 - Partly cloudy 10 - - - -
16/06:30am 14.3 W 9 14 1011.5 - 0.0 - - 10 - - - -
16/06:00am 11.3 W 1 3 1011.3 - 0.0 - - 10 - - - -
16/05:30am 12.9 WSW 5 6 1011.1 - 0.0 - - 10 - - - -
16/05:00am 13.1 W 5 5 1010.7 - 0.0 - - 10 - - - -
16/04:30am 13.7 WSW 5 6 1010.6 - 0.0 - - 10 - - - -
16/04:00am 13.8 WSW 6 8 1010.5 - 0.0 - Partly cloudy 10 - - - -
16/03:30am 15.0 W 7 10 1010.6 - 0.0 - Partly cloudy 10 - - - -
16/03:00am 14.6 WSW 6 8 1010.7 - 0.0 - Cloudy 10 - - - -
16/02:30am 14.6 W 7 10 1010.8 - 0.0 - Partly cloudy 10 - - - -
16/02:00am 15.0 W 8 10 1010.9 - 0.0 - Partly cloudy 10 - - - -
16/01:30am 15.5 WNW 9 11 1011.1 - 0.0 - Partly cloudy 10 - - - -
16/01:00am 15.6 WNW 12 14 1011.1 - 0.0 - Partly cloudy 10 - - - -
16/12:30am 15.4 WNW 10 12 1011.1 - 0.0 - - 10 - - - -
16/12:00am 15.6 WNW 10 13 1011.1 - 0.0 - - 10 - - - -
 
Date/Time
EDT
Temp
°C
Wind Pressure Rain since
9am
mm
Weather Cloud Vis
km
Sea
Height
m
Swell
Dir  Spd
kts
Gust
kts
hPa Trend Height
m
Period
s
Dir
15/11:30pm 14.2 W 7 8 1011.0 - 0.0 - - 10 - - - -
15/11:00pm 15.1 W 10 13 1010.9 - 0.0 - - 10 - - - -
15/10:30pm 16.0 W 13 17 1010.9 - 0.0 - - 10 - - - -
15/10:00pm 16.6 WNW 17 21 1010.7 - 0.0 - - 10 - - - -
15/09:30pm 16.9 WNW 18 24 1010.3 - 0.0 - - 10 - - - -
15/09:00pm 16.8 NW 19 25 1010.0 - 0.0 - - 10 - - - -
15/08:30pm 16.7 NW 19 24 1009.8 - 0.0 - - 10 - - - -
15/08:00pm 17.0 NW 20 25 1009.6 - 0.0 - - 10 - - - -
15/07:30pm 17.3 NW 19 25 1009.6 - 0.0 - - 10 - - - -
15/07:00pm 17.4 NW 19 24 1009.4 - 0.0 - - 10 - - - -
15/06:30pm 18.0 NW 18 23 1009.4 - 0.0 - - 10 - - - -
15/06:00pm 18.4 NW 17 21 1009.5 - 0.0 - - 10 - - - -
15/05:30pm 18.3 NW 17 21 1009.6 - 0.0 - - 10 - - - -
15/05:00pm 18.5 NW 16 20 1010.0 - 0.0 - - 10 - - - -
15/04:30pm 18.7 NW 16 19 1010.2 - 0.0 - - 10 - - - -
15/04:00pm 18.7 NW 16 20 1010.3 - 0.0 - - 10 - - - -
15/03:30pm 18.2 NW 16 19 1010.6 - 0.0 - - 10 - - - -
15/03:00pm 18.2 NW 16 21 1010.9 - 0.0 - - 10 - - - -
15/02:30pm 18.3 NW 16 20 1011.1 - 0.0 - - 10 - - - -
15/02:00pm 18.1 NW 17 20 1011.1 - 0.0 - - 10 - - - -
15/01:30pm 17.5 NW 16 20 1011.1 - 0.0 - - 10 - - - -
15/01:00pm 18.0 NW 16 19 1011.4 - 0.0 - - 10 - - - -
15/12:30pm 17.3 NW 16 20 1011.7 - 0.0 - - 10 - - - -
15/12:00pm 17.4 NW 17 20 1011.9 - 0.0 - - 10 - - - -
15/11:30am 17.2 NW 16 19 1012.2 - 0.0 - - 10 - - - -
15/11:00am 17.3 NW 15 19 1012.5 - 0.0 - Partly cloudy 10 - - - -
15/10:30am 16.8 NW 15 18 1012.4 - 0.0 - Partly cloudy 10 - - - -
15/10:00am 16.5 NW 13 17 1012.3 - 0.0 - - 10 - - - -
15/09:30am 16.8 NNW 9 13 1012.4 - 0.0 - - 10 - - - -
15/09:00am 16.0 NNW 6 8 1012.2 - 0.0 - - 10 - - - -
15/08:30am 15.6 SW 4 25 1012.3 - 0.0 - - 10 - - - -
15/08:00am 14.6 W 4 5 1012.5 - 0.0 - - 10 - - - -
15/07:30am 13.5 W 5 6 1012.2 - 0.0 - - 10 - - - -
15/07:00am 12.3 WSW 4 5 1012.0 - 0.0 - - 10 - - - -
15/06:30am 10.2 WNW 3 4 1011.7 - 0.0 - - 10 - - - -
15/06:00am 10.0 WSW 2 3 1011.3 - 0.0 - - 10 - - - -
15/05:30am 10.4 SW 4 5 1011.1 - 0.0 - - 10 - - - -
15/05:00am 10.6 WSW 5 6 1011.0 - 0.0 - - 10 - - - -
15/04:30am 10.8 WSW 5 7 1010.8 - 0.0 - - 10 - - - -
15/04:00am 10.0 W 7 9 1010.6 - 0.0 - - 10 - - - -
15/03:30am 9.6 W 7 8 1010.6 - 0.0 - - 10 - - - -
15/03:00am 10.4 W 8 9 1010.7 - 0.0 - - 10 - - - -
15/02:30am 11.1 W 8 10 1010.7 - 0.0 - - 10 - - - -
15/02:00am 12.1 W 9 10 1010.8 - 0.0 - - 10 - - - -
15/01:30am 13.0 W 12 15 1010.5 - 0.0 - - 10 - - - -
15/01:00am 13.3 W 7 10 1010.5 - 0.0 - - 10 - - - -
15/12:30am 13.2 WSW 5 6 1010.4 - 0.0 - - 10 - - - -
15/12:00am 13.4 WSW 10 13 1010.1 - 0.0 - - 10 - - - -
 
Date/Time
EDT
Temp
°C
Wind Pressure Rain since
9am
mm
Weather Cloud Vis
km
Sea
Height
m
Swell
Dir  Spd
kts
Gust
kts
hPa Trend Height
m
Period
s
Dir
14/11:30pm 13.7 WSW 7 9 1010.1 - 0.0 - Partly cloudy 10 - - - -
14/11:00pm 14.8 W 10 12 1009.7 - 0.0 - - 10 - - - -
14/10:30pm 15.4 WSW 13 19 1009.5 - 0.0 - Partly cloudy 10 - - - -
14/10:00pm 16.0 W 13 16 1008.9 - 0.0 - Partly cloudy 10 - - - -
14/09:30pm 16.3 W 14 18 1008.6 - 0.0 - - 10 - - - -
14/09:00pm 16.3 WSW 12 16 1008.0 - 0.0 - - 10 - - - -
14/08:30pm 17.4 WSW 15 21 1007.2 - 0.0 - - 10 - - - -
14/08:00pm 18.4 W 16 21 1006.7 - 0.0 - - 10 - - - -
14/07:30pm 19.1 W 17 22 1006.1 - 0.0 - - 10 - - - -
14/07:00pm 19.7 WSW 16 22 1005.4 - 0.0 - - 10 - - - -
14/06:30pm 20.3 WSW 18 23 1004.7 - 0.0 - - 10 - - - -
14/06:00pm 21.2 WSW 20 25 1004.2 - 0.0 - Mostly clear 10 - - - -
14/05:30pm 22.0 WSW 17 25 1003.7 - 0.0 - - 10 - - - -
14/05:16pm 22.5 WSW 17 27 1003.6 - 0.0 - - 10 - - - -
14/05:00pm 22.5 WSW 20 28 1003.4 - 0.0 - - 10 - - - -
14/04:58pm 22.3 WSW 19 25 1003.3 - 0.0 - - 10 - - - -
14/04:30pm 23.2 W 17 23 1002.9 - 0.0 - - 10 - - - -
14/04:00pm 22.8 WNW 17 22 1002.7 - 0.0 - - 10 - - - -
14/03:30pm 22.5 W 20 26 1002.4 - 0.0 - - 10 - - - -
14/03:00pm 23.3 W 18 25 1002.1 - 0.0 - - 10 - - - -
14/02:51pm 22.3 W 18 27 1002.1 - 0.0 - - 10 - - - -
14/02:30pm 23.2 WSW 21 27 1001.8 - 0.0 - - 10 - - - -
14/02:00pm 23.8 W 23 31 1001.2 - 0.0 - - 10 - - - -
14/01:38pm 23.8 WNW 22 30 1000.9 - 0.0 - - 10 - - - -
14/01:30pm 21.6 NW 23 29 1000.9 - 0.0 - - 10 - - - -
14/01:00pm 20.1 NW 25 32 1000.9 - 0.0 - - 10 - - - -
14/12:30pm 21.8 WNW 22 28 1000.8 - 0.0 - - 10 - - - -
14/12:00pm 21.6 NW 20 25 1000.5 - 0.0 - - 10 - - - -
14/11:30am 21.4 NW 18 23 1000.6 - 0.0 - - 10 - - - -
14/11:00am 20.7 NW 17 22 1000.5 - 0.0 - - 10 - - - -
14/10:30am 20.7 NW 17 20 1000.6 - 0.0 - - 10 - - - -
14/10:00am 20.4 NW 15 20 1000.7 - 0.0 - - 10 - - - -
14/09:30am 20.1 NW 12 16 1000.8 - 0.0 - - 10 - - - -
14/09:00am 20.0 NW 10 13 1000.8 - 0.0 - - 10 - - - -
14/08:30am 19.8 NW 7 10 1000.7 - 0.0 - - 10 - - - -
14/08:00am 19.8 NW 6 8 1000.3 - 0.0 - - 10 - - - -
14/07:30am 19.7 WNW 6 8 1000.3 - 0.0 - - 10 - - - -
14/07:00am 18.7 NW 6 9 1000.3 - 0.0 - - 10 - - - -
14/06:30am 18.4 WNW 4 5 1000.2 - 0.0 - Partly cloudy 10 - - - -
14/06:00am 18.5 WNW 7 9 1000.0 - 0.0 - Mostly cloudy 10 - - - -
14/05:30am 18.1 WSW 6 8 999.5 - 0.0 - Partly cloudy 10 - - - -
14/05:00am 18.7 SW 8 12 998.6 - 0.0 - Partly cloudy 10 - - - -
14/04:30am 18.8 SSE 5 7 998.5 - 0.0 - Partly cloudy 10 - - - -
14/04:00am 19.6 SSE 9 11 998.4 - 0.0 - Partly cloudy 10 - - - -
14/03:30am 20.0 ESE 11 13 998.5 - 0.0 - Partly cloudy 10 - - - -
14/03:29am 20.0 ESE 11 13 998.5 - 0.0 - Partly cloudy 10 - - - -
14/03:00am 19.7 SE 7 9 1000.5 - 0.0 Showers Cloudy 10 - - - -
14/02:30am 19.2 SE 6 7 1001.5 - 0.0 - Partly cloudy 10 - - - -
14/02:00am 19.7 SSW 6 9 1002.4 - 0.0 - Cloudy 10 - - - -
14/01:30am 19.1 SSW 8 12 1002.0 - 0.0 - Cloudy 10 - - - -
14/01:00am 19.0 S 8 10 1001.8 - 0.0 - Cloudy 10 - - - -
14/12:30am 19.4 E 6 8 1002.1 - 0.0 - Cloudy 10 - - - -
14/12:00am 19.1 SSE 7 8 1003.8 - 0.0 Showers Cloudy 10 - - - -
 
Date/Time
EDT
Temp
°C
Wind Pressure Rain since
9am
mm
Weather Cloud Vis
km
Sea
Height
m
Swell
Dir  Spd
kts
Gust
kts
hPa Trend Height
m
Period
s
Dir
13/11:30pm 19.2 SSW 5 8 1004.5 - 0.0 - Cloudy 10 - - - -
13/11:00pm 19.0 SE 5 8 1004.0 - 0.0 - - 10 - - - -
13/10:30pm 18.9 SE 6 8 1004.7 - 0.0 - Partly cloudy 10 - - - -
13/10:00pm 19.4 S 7 10 1005.9 - 0.0 - Partly cloudy 10 - - - -
13/09:30pm 19.1 W 8 10 1006.0 - 0.0 - Partly cloudy 10 - - - -
13/09:00pm 18.9 N 2 5 1004.7 - 0.0 - Cloudy 10 - - - -
13/08:30pm 19.0 E 4 5 1004.0 - 0.0 - - 10 - - - -

Other Formats:

Comma delimited format used in spreadsheet applications
http://www.bom.gov.au/fwo/IDT60701/IDT60701.95960.axf

JavaScript Object Notation format (JSON) in row-major order
http://www.bom.gov.au/fwo/IDT60701/IDT60701.95960.json